Time;durP1;ratioP1;P1;durP2;ratioP2;P2;SDS_P1;SDS_P2;PMS_P1;PMS_P2;Temp;Humidity;BMP_temperature;BMP_pressure;BME280_temperature;BME280_humidity;BME280_pressure;Samples;Min_cycle;Max_cycle;Signal;HPM_P1;HPM_P2
2023/12/26 00:02:06;;;;;;;1.25;1.23;;;;;;;8.03;100.00;97729.06;4972711;28;20239;-78
2023/12/26 00:04:32;;;;;;;1.63;1.00;;;;;;;8.05;100.00;97716.31;4972144;28;20035;-78
2023/12/26 00:06:57;;;;;;;1.30;1.20;;;;;;;8.06;100.00;97715.25;4971812;28;20038;-78
2023/12/26 00:09:22;;;;;;;1.75;1.60;;;;;;;8.08;100.00;97732.50;4972863;28;20035;-77
2023/12/26 00:11:48;;;;;;;1.60;1.30;;;;;;;8.12;100.00;97716.88;4966599;28;20063;-77
2023/12/26 00:14:16;;;;;;;1.10;1.10;;;;;;;8.11;100.00;97723.22;4960936;28;20033;-77
2023/12/26 00:16:42;;;;;;;1.35;1.15;;;;;;;8.05;100.00;97724.28;4973039;28;20132;-77
2023/12/26 00:19:08;;;;;;;1.45;1.35;;;;;;;8.00;100.00;97709.09;4974985;28;20066;-77
2023/12/26 00:21:34;;;;;;;1.58;1.38;;;;;;;8.04;100.00;97709.38;4974017;28;20038;-78
2023/12/26 00:23:59;;;;;;;2.20;1.27;;;;;;;8.06;100.00;97712.59;4971022;28;20027;-77
2023/12/26 00:26:24;;;;;;;1.10;1.08;;;;;;;8.01;100.00;97702.75;4970409;28;20117;-78
2023/12/26 00:28:50;;;;;;;1.25;1.15;;;;;;;8.08;100.00;97715.78;4972149;28;20507;-78
2023/12/26 00:31:16;;;;;;;1.50;1.40;;;;;;;8.08;100.00;97705.16;4972527;28;20037;-78
2023/12/26 00:33:41;;;;;;;1.25;1.17;;;;;;;8.02;100.00;97703.53;4972661;28;20062;-77
2023/12/26 00:36:12;;;;;;;1.23;1.23;;;;;;;8.03;100.00;97694.50;4970177;28;20037;-77
2023/12/26 00:38:38;;;;;;;1.52;1.42;;;;;;;8.07;100.00;97703.56;4974424;28;20034;-78
2023/12/26 00:41:05;;;;;;;1.40;1.30;;;;;;;8.10;100.00;97701.16;4973912;28;20027;-78
2023/12/26 00:43:30;;;;;;;1.50;1.40;;;;;;;8.08;100.00;97689.22;4972824;28;20497;-78
2023/12/26 00:45:55;;;;;;;1.45;1.35;;;;;;;8.10;100.00;97689.75;4970259;28;20039;-77
2023/12/26 00:48:21;;;;;;;0.95;0.95;;;;;;;8.06;100.00;97688.69;4968421;28;20263;-78
2023/12/26 00:50:47;;;;;;;1.10;1.10;;;;;;;8.06;100.00;97680.72;4970475;28;20154;-77
2023/12/26 00:53:12;;;;;;;1.77;1.40;;;;;;;8.04;100.00;97685.47;4970734;28;20451;-78
2023/12/26 00:55:37;;;;;;;1.13;1.10;;;;;;;8.07;100.00;97685.75;4967760;28;20582;-78
2023/12/26 00:58:03;;;;;;;0.98;0.95;;;;;;;8.02;100.00;97675.09;4969686;28;20035;-77
2023/12/26 01:00:29;;;;;;;1.70;1.52;;;;;;;8.05;100.00;97684.41;4973844;28;20066;-78
2023/12/26 01:02:54;;;;;;;1.50;1.40;;;;;;;8.09;100.00;97672.19;4973586;28;20038;-78
2023/12/26 01:05:20;;;;;;;3.28;1.17;;;;;;;8.01;100.00;97689.47;4973239;28;20027;-77
2023/12/26 01:07:45;;;;;;;1.65;1.35;;;;;;;8.03;100.00;97689.19;4973351;28;20080;-77
2023/12/26 01:10:12;;;;;;;0.90;0.90;;;;;;;8.02;100.00;97674.28;4972754;28;20423;-77
2023/12/26 01:12:37;;;;;;;1.20;1.10;;;;;;;8.01;100.00;97673.53;4971682;28;20117;-78
2023/12/26 01:15:03;;;;;;;1.20;1.10;;;;;;;7.98;100.00;97665.25;4967557;28;20166;-77
2023/12/26 01:17:29;;;;;;;1.35;1.25;;;;;;;8.03;100.00;97681.22;4974294;28;20085;-78
2023/12/26 01:19:54;;;;;;;0.80;0.80;;;;;;;7.96;100.00;97673.50;4971023;28;20042;-78
2023/12/26 01:22:19;;;;;;;1.33;1.23;;;;;;;8.00;100.00;97681.72;4967860;28;20038;-77
2023/12/26 01:24:45;;;;;;;0.82;0.77;;;;;;;7.96;100.00;97678.00;4971388;28;20396;-77
2023/12/26 01:27:10;;;;;;;1.42;1.20;;;;;;;8.01;100.00;97672.72;4970774;28;20030;-77
2023/12/26 01:29:36;;;;;;;1.23;1.10;;;;;;;8.02;100.00;97677.75;4971098;28;20034;-77
2023/12/26 01:32:01;;;;;;;1.27;0.73;;;;;;;8.01;100.00;97673.53;4968956;28;20045;-78
2023/12/26 01:34:27;;;;;;;0.60;0.60;;;;;;;8.02;100.00;97676.94;4971695;28;20097;-77
2023/12/26 01:36:52;;;;;;;1.58;1.17;;;;;;;8.01;100.00;97672.72;4972680;28;20035;-77
2023/12/26 01:39:17;;;;;;;0.70;0.70;;;;;;;8.02;100.00;97668.97;4966085;28;20073;-76
2023/12/26 01:41:43;;;;;;;1.10;0.90;;;;;;;8.00;100.00;97669.25;4966458;28;20085;-78
2023/12/26 01:44:08;;;;;;;0.77;0.77;;;;;;;7.98;100.00;97667.91;4969390;28;20113;-77
2023/12/26 01:46:34;;;;;;;1.92;0.70;;;;;;;8.00;100.00;97666.59;4971001;28;20134;-77
2023/12/26 01:49:00;;;;;;;1.02;1.02;;;;;;;7.98;100.00;97673.22;4966222;28;20030;-78
2023/12/26 01:51:28;;;;;;;1.10;0.93;;;;;;;8.00;100.00;97673.75;4965391;28;20031;-78
2023/12/26 01:53:53;;;;;;;1.13;1.13;;;;;;;8.02;100.00;97679.59;4964671;28;20034;-77
2023/12/26 01:56:21;;;;;;;2.50;1.00;;;;;;;8.01;100.00;97676.19;4965212;28;21304;-77
2023/12/26 01:58:48;;;;;;;2.10;1.48;;;;;;;8.05;100.00;97681.75;4961752;28;20043;-77
2023/12/26 02:01:14;;;;;;;1.60;1.20;;;;;;;8.08;100.00;97674.06;4971389;28;20400;-77
2023/12/26 02:03:40;;;;;;;1.13;0.88;;;;;;;8.02;100.00;97677.75;4972715;28;20031;-77
2023/12/26 02:06:07;;;;;;;1.08;1.00;;;;;;;8.02;100.00;97674.28;4970278;28;20050;-76
2023/12/26 02:08:34;;;;;;;2.40;0.93;;;;;;;8.04;100.00;97672.16;4964619;28;20033;-77
2023/12/26 02:10:59;;;;;;;0.73;0.73;;;;;;;8.05;100.00;97671.13;4966873;28;20050;-77
2023/12/26 02:13:24;;;;;;;2.15;0.95;;;;;;;8.05;100.00;97684.41;4969694;28;20031;-76
2023/12/26 02:15:54;;;;;;;1.33;1.30;;;;;;;8.06;100.00;97673.50;4971632;28;20030;-78
2023/12/26 02:18:19;;;;;;;1.13;0.88;;;;;;;8.04;100.00;97669.50;4973581;28;20027;-78
2023/12/26 02:20:45;;;;;;;1.50;1.40;;;;;;;8.05;100.00;97673.78;4972951;28;20035;-77
2023/12/26 02:23:10;;;;;;;1.02;0.93;;;;;;;8.06;100.00;97673.50;4968676;28;20403;-77
2023/12/26 02:25:36;;;;;;;2.42;0.90;;;;;;;8.05;100.00;97685.22;4967238;28;20055;-78
2023/12/26 02:28:03;;;;;;;0.50;0.50;;;;;;;8.08;100.00;97689.22;4972008;28;20645;-77
2023/12/26 02:30:30;;;;;;;0.80;0.80;;;;;;;8.08;100.00;97671.41;4971659;28;20540;-77
2023/12/26 02:32:57;;;;;;;0.98;0.95;;;;;;;8.09;100.00;97682.81;4965525;28;20065;-77
2023/12/26 02:35:22;;;;;;;1.02;1.00;;;;;;;8.10;100.00;97676.47;4968988;28;20029;-77
2023/12/26 02:37:49;;;;;;;1.00;1.00;;;;;;;8.05;100.00;97671.13;4969325;28;20023;-78
2023/12/26 02:40:15;;;;;;;3.05;1.45;;;;;;;8.06;100.00;97681.47;4973262;28;20702;-77
2023/12/26 02:42:41;;;;;;;2.22;1.70;;;;;;;8.08;100.00;97675.94;4972131;28;20042;-77
2023/12/26 02:45:07;;;;;;;1.60;0.98;;;;;;;8.11;100.00;97680.72;4970506;28;20038;-77
2023/12/26 02:47:32;;;;;;;1.27;1.17;;;;;;;8.12;100.00;97699.06;4969629;28;20539;-78
2023/12/26 02:49:58;;;;;;;0.93;0.93;;;;;;;8.08;100.00;97689.22;4970897;28;20034;-78
2023/12/26 02:52:23;;;;;;;1.33;1.23;;;;;;;8.08;100.00;97699.84;4967706;28;20027;-77
2023/12/26 02:54:48;;;;;;;1.10;1.10;;;;;;;8.08;100.00;97707.81;4969584;28;20173;-78
2023/12/26 02:57:14;;;;;;;1.00;1.00;;;;;;;8.07;100.00;97704.34;4970814;28;20034;-77
2023/12/26 02:59:39;;;;;;;1.42;1.13;;;;;;;8.08;100.00;97690.00;4971397;28;20046;-78
2023/12/26 03:02:04;;;;;;;1.80;1.08;;;;;;;8.07;100.00;97700.91;4966539;28;20174;-78
2023/12/26 03:04:30;;;;;;;0.90;0.90;;;;;;;8.10;100.00;97705.69;4970333;28;20480;-78
2023/12/26 03:06:56;;;;;;;1.25;0.77;;;;;;;8.07;100.00;97716.84;4966790;28;20027;-78
2023/12/26 03:09:22;;;;;;;1.05;0.85;;;;;;;8.11;100.00;97717.91;4969656;28;20638;-78
2023/12/26 03:11:48;;;;;;;1.67;1.08;;;;;;;8.07;100.00;97722.16;4975421;28;20061;-78
2023/12/26 03:14:15;;;;;;;0.90;0.90;;;;;;;8.07;100.00;97720.31;4976828;28;20168;-78
2023/12/26 03:16:40;;;;;;;2.38;1.00;;;;;;;8.09;100.00;97714.72;4973641;28;20027;-78
2023/12/26 03:19:06;;;;;;;1.67;1.10;;;;;;;8.04;100.00;97714.69;4973804;28;20053;-77
2023/12/26 03:21:31;;;;;;;0.90;0.90;;;;;;;8.01;100.00;97708.06;4975816;28;20033;-78
2023/12/26 03:23:56;;;;;;;1.10;1.00;;;;;;;8.04;100.00;97706.72;4974045;28;20505;-78
2023/12/26 03:26:22;;;;;;;1.40;1.30;;;;;;;8.06;100.00;97713.38;4975535;28;20039;-77
2023/12/26 03:28:47;;;;;;;1.40;1.30;;;;;;;8.10;100.00;97706.47;4975889;28;20054;-77
2023/12/26 03:31:13;;;;;;;1.63;1.20;;;;;;;8.06;100.00;97704.63;4977416;28;20026;-77
2023/12/26 03:33:38;;;;;;;6.82;1.67;;;;;;;7.99;100.00;97709.38;4966149;28;20033;-78
2023/12/26 03:36:05;;;;;;;3.58;1.52;;;;;;;8.01;100.00;97707.25;4975077;28;20098;-78
2023/12/26 03:38:30;;;;;;;1.27;0.95;;;;;;;8.00;100.00;97718.94;4968810;28;20493;-77
2023/12/26 03:40:57;;;;;;;2.75;2.03;;;;;;;8.09;100.00;97720.03;4972835;28;20027;-77
2023/12/26 03:43:23;;;;;;;2.17;1.83;;;;;;;8.07;100.00;97730.13;4973284;28;20050;-77
2023/12/26 03:45:49;;;;;;;2.38;1.77;;;;;;;8.03;100.00;97713.91;4976396;28;20114;-77
2023/12/26 03:48:15;;;;;;;3.67;1.75;;;;;;;8.04;100.00;97720.00;4980401;28;20031;-77
2023/12/26 03:50:40;;;;;;;1.58;1.40;;;;;;;8.03;100.00;97711.25;4972337;28;20839;-78
2023/12/26 03:53:06;;;;;;;6.15;1.48;;;;;;;8.08;100.00;97702.50;4975799;28;20054;-78
2023/12/26 03:55:32;;;;;;;1.77;1.27;;;;;;;7.99;100.00;97710.19;4966133;28;20484;-78
2023/12/26 03:57:57;;;;;;;1.25;1.15;;;;;;;8.02;100.00;97716.81;4969464;28;20030;-77
2023/12/26 04:00:23;;;;;;;1.40;1.15;;;;;;;7.96;100.00;97709.88;4972150;28;20023;-77
2023/12/26 04:02:48;;;;;;;0.65;0.60;;;;;;;7.94;100.00;97704.84;4973680;28;20035;-77
2023/12/26 04:05:14;;;;;;;0.93;0.90;;;;;;;7.90;100.00;97710.91;4953204;28;20042;-78
2023/12/26 04:07:39;;;;;;;0.57;0.57;;;;;;;7.88;100.00;97718.34;4971168;28;20503;-77
2023/12/26 04:10:05;;;;;;;0.40;0.40;;;;;;;7.92;100.00;97706.94;4973472;28;20066;-77
2023/12/26 04:12:32;;;;;;;0.22;0.22;;;;;;;7.92;100.00;97714.91;4972452;28;20113;-77
2023/12/26 04:14:57;;;;;;;0.63;0.50;;;;;;;7.87;100.00;97722.06;4973864;28;20022;-77
2023/12/26 04:17:22;;;;;;;0.88;0.40;;;;;;;7.90;100.00;97730.31;4969679;28;20026;-78
2023/12/26 04:19:48;;;;;;;1.95;0.52;;;;;;;7.92;100.00;97730.88;4970830;28;20038;-77
2023/12/26 04:22:13;;;;;;;0.32;0.32;;;;;;;7.97;100.00;97730.09;4967432;28;20096;-78
2023/12/26 04:24:39;;;;;;;0.30;0.30;;;;;;;7.86;100.00;97731.09;4970101;28;20042;-77
2023/12/26 04:27:06;;;;;;;0.30;0.30;;;;;;;7.87;100.00;97738.00;4967895;28;20041;-77
2023/12/26 04:29:32;;;;;;;0.68;0.50;;;;;;;7.93;100.00;97731.66;4964777;28;20035;-77
2023/12/26 04:31:57;;;;;;;0.40;0.40;;;;;;;7.94;100.00;97731.41;4973896;28;20050;-77
2023/12/26 04:34:24;;;;;;;0.20;0.20;;;;;;;7.92;100.00;97730.06;4951600;28;20141;-77
2023/12/26 04:36:49;;;;;;;0.30;0.30;;;;;;;7.88;100.00;97740.41;4960771;28;20037;-76
2023/12/26 04:39:15;;;;;;;0.30;0.30;;;;;;;7.89;100.00;97744.66;4971320;28;20422;-78
2023/12/26 04:41:40;;;;;;;0.30;0.30;;;;;;;7.91;100.00;97741.72;4974113;28;20039;-78
2023/12/26 04:44:05;;;;;;;0.95;0.50;;;;;;;7.86;100.00;97736.41;4969389;28;20031;-78
2023/12/26 04:46:31;;;;;;;0.30;0.30;;;;;;;7.88;100.00;97745.72;4964635;28;20098;-77
2023/12/26 04:48:56;;;;;;;0.20;0.20;;;;;;;7.74;100.00;97741.09;4972480;28;20552;-78
2023/12/26 04:51:22;;;;;;;0.40;0.40;;;;;;;7.78;100.00;97744.84;4968980;28;20026;-77
2023/12/26 04:53:48;;;;;;;0.30;0.30;;;;;;;7.81;100.00;97762.94;4975872;28;20043;-77
2023/12/26 04:56:17;;;;;;;0.40;0.40;;;;;;;7.84;100.00;97770.41;4976546;28;20031;-77
2023/12/26 04:58:48;;;;;;;0.52;0.40;;;;;;;7.87;100.00;97759.25;4973195;28;20026;-77
2023/12/26 05:01:17;;;;;;;0.47;0.40;;;;;;;7.94;100.00;97763.28;4966704;28;20027;-78
2023/12/26 05:03:44;;;;;;;0.50;0.50;;;;;;;7.91;100.00;97763.78;4968596;28;20131;-77
2023/12/26 05:06:09;;;;;;;1.58;0.50;;;;;;;7.88;100.00;97755.53;4964153;28;20424;-78
2023/12/26 05:08:39;;;;;;;1.58;0.60;;;;;;;7.92;100.00;97752.13;4970694;28;20227;-77
2023/12/26 05:11:05;;;;;;;0.38;0.30;;;;;;;7.79;100.00;97754.44;4972887;28;20041;-78
2023/12/26 05:13:31;;;;;;;0.80;0.50;;;;;;;7.76;100.00;97749.63;4966300;28;20041;-76
2023/12/26 05:16:00;;;;;;;0.30;0.30;;;;;;;7.85;100.00;97753.38;4962709;28;20035;-75
2023/12/26 05:18:25;;;;;;;0.45;0.45;;;;;;;7.89;100.00;97757.94;4968300;28;20507;-77
2023/12/26 05:20:50;;;;;;;0.30;0.20;;;;;;;7.89;100.00;97757.94;4966820;28;20035;-76
2023/12/26 05:23:16;;;;;;;0.60;0.60;;;;;;;7.90;100.00;97766.72;4968145;28;20031;-75
2023/12/26 05:25:42;;;;;;;0.43;0.43;;;;;;;7.84;100.00;97776.50;4962171;28;20038;-77
2023/12/26 05:28:07;;;;;;;0.40;0.40;;;;;;;7.81;100.00;97766.41;4962397;28;20078;-77
2023/12/26 05:30:33;;;;;;;0.80;0.80;;;;;;;7.90;100.00;97775.47;4963461;28;20501;-76
2023/12/26 05:32:59;;;;;;;0.50;0.50;;;;;;;7.86;100.00;97778.91;4966459;28;20031;-77
2023/12/26 05:35:24;;;;;;;0.57;0.50;;;;;;;7.86;100.00;97765.63;4967859;28;20388;-76
2023/12/26 05:37:50;;;;;;;1.30;0.63;;;;;;;7.83;100.00;97782.06;4967760;28;20105;-77
2023/12/26 05:40:15;;;;;;;0.50;0.50;;;;;;;7.78;100.00;97782.03;4967679;28;20042;-77
2023/12/26 05:42:40;;;;;;;0.40;0.40;;;;;;;7.86;100.00;97784.22;4969596;28;20126;-75
2023/12/26 05:45:06;;;;;;;0.65;0.50;;;;;;;7.84;100.00;97771.19;4959073;28;20039;-76
2023/12/26 05:47:31;;;;;;;1.65;0.40;;;;;;;7.75;100.00;97782.56;4965378;28;20058;-77
2023/12/26 05:49:58;;;;;;;0.38;0.38;;;;;;;7.76;100.00;97784.94;4964055;28;20387;-76
2023/12/26 05:52:27;;;;;;;1.17;0.50;;;;;;;7.83;100.00;97800.66;4967457;28;20035;-77
2023/12/26 05:54:52;;;;;;;0.50;0.50;;;;;;;7.81;100.00;97808.09;4968234;28;20038;-78
2023/12/26 05:57:18;;;;;;;0.50;0.50;;;;;;;7.69;100.00;97805.59;4965340;28;20027;-77
2023/12/26 05:59:43;;;;;;;1.50;0.63;;;;;;;7.74;100.00;97804.84;4961403;28;20027;-76
2023/12/26 06:02:08;;;;;;;0.30;0.30;;;;;;;7.76;100.00;97816.00;4966968;28;20113;-76
2023/12/26 06:04:34;;;;;;;0.70;0.50;;;;;;;7.71;100.00;97802.72;4967317;28;20050;-77
2023/12/26 06:06:59;;;;;;;1.08;0.70;;;;;;;7.72;100.00;97821.03;4972520;28;20023;-77
2023/12/26 06:09:26;;;;;;;1.05;0.45;;;;;;;7.72;100.00;97805.13;4966405;28;20039;-76
2023/12/26 06:11:52;;;;;;;0.55;0.55;;;;;;;7.72;100.00;97820.25;4969613;28;20038;-78
2023/12/26 06:14:17;;;;;;;0.50;0.40;;;;;;;7.66;100.00;97839.84;4968142;28;20171;-78
2023/12/26 06:16:42;;;;;;;0.35;0.30;;;;;;;7.57;100.00;97850.94;4970079;28;20551;-77
2023/12/26 06:19:09;;;;;;;0.22;0.20;;;;;;;7.62;100.00;97862.66;4968927;28;20042;-77
2023/12/26 06:21:35;;;;;;;0.40;0.40;;;;;;;7.72;100.00;97857.44;4969398;28;20039;-77
2023/12/26 06:24:00;;;;;;;0.40;0.40;;;;;;;7.77;100.00;97865.44;4975008;28;20046;-78
2023/12/26 06:26:26;;;;;;;0.40;0.40;;;;;;;7.73;100.00;97877.63;4974511;28;20038;-77
2023/12/26 06:28:51;;;;;;;0.43;0.40;;;;;;;7.71;100.00;97869.13;4973527;28;20031;-77
2023/12/26 06:31:18;;;;;;;0.30;0.30;;;;;;;7.79;100.00;97888.03;4976319;28;20070;-78
2023/12/26 06:33:44;;;;;;;0.70;0.70;;;;;;;7.84;100.00;97900.56;4973552;28;20039;-77
2023/12/26 06:36:09;;;;;;;0.60;0.60;;;;;;;7.72;100.00;97887.44;4966574;28;20415;-76
2023/12/26 06:38:35;;;;;;;0.80;0.80;;;;;;;7.88;100.00;97914.94;4971510;28;20039;-78
2023/12/26 06:41:02;;;;;;;1.05;0.95;;;;;;;7.91;100.00;97933.00;4971573;28;20377;-77
2023/12/26 06:43:28;;;;;;;1.00;0.95;;;;;;;7.63;100.00;97931.44;4967093;28;20038;-77
2023/12/26 06:45:54;;;;;;;0.77;0.77;;;;;;;7.62;100.00;97918.44;4972367;28;20466;-78
2023/12/26 06:48:19;;;;;;;6.18;0.77;;;;;;;7.58;100.00;97948.13;4970932;28;20122;-78
2023/12/26 06:50:45;;;;;;;1.02;0.90;;;;;;;7.46;100.00;97955.47;4970387;28;20066;-78
2023/12/26 06:53:10;;;;;;;1.80;0.98;;;;;;;7.35;100.00;97961.72;4970828;28;20660;-77
2023/12/26 06:55:35;;;;;;;1.00;0.90;;;;;;;7.31;100.00;97949.19;4981706;28;20471;-77
2023/12/26 06:58:01;;;;;;;1.90;0.90;;;;;;;7.38;100.00;97955.09;4967816;28;20026;-77
2023/12/26 07:00:26;;;;;;;1.17;0.98;;;;;;;7.37;100.00;97972.06;4972112;28;20057;-77
2023/12/26 07:02:54;;;;;;;1.52;1.17;;;;;;;7.25;100.00;97948.31;4970158;28;20061;-77
2023/12/26 07:05:20;;;;;;;3.33;1.00;;;;;;;7.31;100.00;97936.72;4982938;28;20391;-77
2023/12/26 07:07:45;;;;;;;2.60;1.20;;;;;;;7.22;100.00;97959.44;4974125;28;20035;-78
2023/12/26 07:10:11;;;;;;;3.38;1.77;;;;;;;7.16;100.00;97957.78;4970753;28;20026;-78
2023/12/26 07:12:37;;;;;;;2.53;2.35;;;;;;;7.43;100.00;97966.56;4967816;28;20061;-78
2023/12/26 07:15:04;;;;;;;1.17;1.08;;;;;;;7.42;100.00;97980.09;4968140;28;20531;-78
2023/12/26 07:17:29;;;;;;;3.60;1.17;;;;;;;7.36;100.00;97989.84;4974594;28;20400;-78
2023/12/26 07:19:54;;;;;;;4.75;1.30;;;;;;;7.38;100.00;97994.91;4969254;28;20043;-78
2023/12/26 07:22:20;;;;;;;1.73;1.27;;;;;;;7.29;100.00;98001.72;4972638;28;20062;-77
2023/12/26 07:24:45;;;;;;;4.53;1.52;;;;;;;7.35;100.00;98008.69;4975657;28;20035;-77
2023/12/26 07:27:11;;;;;;;3.35;1.67;;;;;;;7.33;100.00;98019.56;4975377;28;20067;-77
2023/12/26 07:29:36;;;;;;;4.10;1.70;;;;;;;7.30;100.00;98025.34;4974524;28;20058;-78
2023/12/26 07:32:02;;;;;;;4.85;2.17;;;;;;;7.38;100.00;98021.47;4972297;28;20062;-78
2023/12/26 07:34:27;;;;;;;1.35;1.10;;;;;;;7.43;100.00;98024.97;4972255;28;20046;-78
2023/12/26 07:36:53;;;;;;;7.47;3.17;;;;;;;7.53;100.00;98035.69;4973731;28;20054;-77
2023/12/26 07:39:19;;;;;;;6.60;2.03;;;;;;;7.43;100.00;98029.47;4970796;28;20026;-78
2023/12/26 07:41:44;;;;;;;3.33;1.83;;;;;;;7.44;100.00;98055.78;4973384;28;20046;-78
2023/12/26 07:44:10;;;;;;;2.92;1.67;;;;;;;7.37;100.00;98044.56;4975407;28;20058;-78
2023/12/26 07:46:35;;;;;;;6.95;2.40;;;;;;;7.30;100.00;98051.88;4975307;28;20043;-78
2023/12/26 07:49:01;;;;;;;3.05;1.70;;;;;;;7.38;100.00;98062.06;4955167;28;20088;-78
2023/12/26 07:51:26;;;;;;;4.22;2.20;;;;;;;7.20;100.00;98061.56;4969526;28;20029;-78
2023/12/26 07:53:52;;;;;;;3.20;1.98;;;;;;;7.33;100.00;98070.00;4972330;28;20027;-78
2023/12/26 07:56:18;;;;;;;5.15;2.17;;;;;;;7.34;100.00;98068.13;4973247;28;20039;-78
2023/12/26 07:58:44;;;;;;;5.53;2.03;;;;;;;7.45;100.00;98086.59;4971672;28;20697;-77
2023/12/26 08:01:09;;;;;;;3.58;1.67;;;;;;;7.40;100.00;98093.69;4973563;28;20047;-78
2023/12/26 08:03:35;;;;;;;5.13;2.67;;;;;;;7.34;100.00;98097.31;4970603;28;20043;-78
2023/12/26 08:06:00;;;;;;;4.60;2.42;;;;;;;7.39;100.00;98092.06;4971351;28;20170;-77
2023/12/26 08:08:25;;;;;;;7.45;2.63;;;;;;;7.45;100.00;98097.19;4975206;28;20049;-78
2023/12/26 08:10:51;;;;;;;3.33;2.88;;;;;;;7.36;100.00;98098.69;4973398;28;20117;-78
2023/12/26 08:13:16;;;;;;;4.53;2.88;;;;;;;7.36;100.00;98114.59;4967439;28;20536;-79
2023/12/26 08:15:42;;;;;;;5.20;3.78;;;;;;;7.39;100.00;98103.50;5020132;22;20156;-80
2023/12/26 08:18:07;;;;;;;7.75;3.72;;;;;;;7.36;100.00;98122.56;5027323;28;20026;-79
2023/12/26 08:20:33;;;;;;;10.75;5.63;;;;;;;7.33;100.00;98109.00;5042288;28;20032;-80
2023/12/26 08:23:00;;;;;;;7.50;5.50;;;;;;;7.26;100.00;98103.84;5033372;28;20109;-80
2023/12/26 08:25:25;;;;;;;7.90;4.32;;;;;;;7.35;100.00;98118.31;5032949;28;20033;-80
2023/12/26 08:27:51;;;;;;;6.05;4.35;;;;;;;7.01;100.00;98100.06;5022478;28;20603;-80
2023/12/26 08:30:18;;;;;;;8.27;4.43;;;;;;;7.34;100.00;98135.28;5015111;28;20050;-80
2023/12/26 08:32:43;;;;;;;9.85;4.45;;;;;;;7.27;100.00;98147.91;5022189;28;20040;-81
2023/12/26 08:35:09;;;;;;;6.85;4.03;;;;;;;7.23;99.77;98149.47;5014876;28;20640;-80
2023/12/26 08:37:34;;;;;;;5.25;3.38;;;;;;;7.17;99.50;98163.72;5020588;28;20026;-80
2023/12/26 08:39:59;;;;;;;8.68;5.80;;;;;;;7.19;99.85;98155.50;5019616;28;20038;-79
2023/12/26 08:42:25;;;;;;;8.10;3.75;;;;;;;7.25;100.00;98175.78;5001361;28;20132;-79
2023/12/26 08:44:50;;;;;;;5.93;3.95;;;;;;;7.20;99.13;98187.13;5018877;28;20402;-80
2023/12/26 08:47:16;;;;;;;5.20;3.85;;;;;;;7.08;99.64;98183.72;5017814;28;20033;-80
2023/12/26 08:49:41;;;;;;;7.40;4.43;;;;;;;7.25;99.34;98195.13;5014382;28;20064;-79
2023/12/26 08:52:08;;;;;;;6.75;3.63;;;;;;;7.21;99.19;98191.38;5008471;28;20080;-79
2023/12/26 08:54:33;;;;;;;7.28;4.47;;;;;;;7.34;99.50;98219.41;5010982;28;20032;-79
2023/12/26 08:56:59;;;;;;;6.72;3.63;;;;;;;7.25;99.00;98205.75;5011947;28;20116;-80
2023/12/26 08:59:25;;;;;;;9.23;3.83;;;;;;;7.22;99.53;98218.72;5013535;28;20030;-78
2023/12/26 09:01:51;;;;;;;10.63;4.00;;;;;;;7.23;98.89;98230.94;5012907;28;20033;-79
2023/12/26 09:04:16;;;;;;;5.22;3.70;;;;;;;7.17;99.01;98231.91;5009846;28;20025;-80
2023/12/26 09:06:42;;;;;;;5.03;3.08;;;;;;;7.15;99.61;98224.19;5011486;28;20526;-81
2023/12/26 09:09:07;;;;;;;4.22;3.10;;;;;;;7.19;98.46;98243.06;5009426;28;20041;-79
2023/12/26 09:11:32;;;;;;;3.10;2.78;;;;;;;7.12;98.64;98239.78;5011906;28;20100;-81
2023/12/26 09:13:58;;;;;;;6.25;2.75;;;;;;;7.06;98.34;98236.25;5010069;28;20030;-81
2023/12/26 09:16:23;;;;;;;8.00;3.38;;;;;;;7.20;99.19;98257.97;5010494;28;20116;-80
2023/12/26 09:18:49;;;;;;;3.78;2.75;;;;;;;7.28;98.78;98249.59;5015063;28;20053;-80
2023/12/26 09:21:14;;;;;;;9.25;3.08;;;;;;;7.19;98.53;98251.84;5013653;28;20026;-80
2023/12/26 09:23:40;;;;;;;3.10;2.80;;;;;;;7.31;97.37;98260.53;5014539;28;20423;-80
2023/12/26 09:26:06;;;;;;;3.63;2.60;;;;;;;7.15;98.24;98256.03;5011637;28;20469;-79
2023/12/26 09:28:32;;;;;;;7.90;3.30;;;;;;;7.30;98.15;98272.19;5016568;28;20030;-79
2023/12/26 09:30:58;;;;;;;4.15;3.40;;;;;;;7.28;98.98;98276.94;5014275;28;20037;-80
2023/12/26 09:33:24;;;;;;;6.05;2.92;;;;;;;7.23;98.49;98282.16;5012886;28;20052;-81
2023/12/26 09:35:50;;;;;;;3.55;2.83;;;;;;;7.32;98.28;98293.19;5010541;28;20120;-81
2023/12/26 09:38:15;;;;;;;7.38;3.50;;;;;;;7.22;97.76;98287.72;5011310;28;20104;-81
2023/12/26 09:40:41;;;;;;;4.10;3.45;;;;;;;7.25;97.24;98303.16;5009505;28;20018;-80
2023/12/26 09:43:07;;;;;;;18.30;3.92;;;;;;;7.28;97.16;98303.50;5011379;28;20383;-80
2023/12/26 09:45:33;;;;;;;10.32;5.00;;;;;;;7.11;97.50;98297.38;5014105;28;20038;-80
2023/12/26 09:47:58;;;;;;;12.00;3.95;;;;;;;7.23;97.21;98302.63;5013717;28;20156;-80
2023/12/26 09:50:24;;;;;;;6.18;4.32;;;;;;;7.19;96.94;98320.84;5011283;28;20030;-80
2023/12/26 09:52:58;;;;;;;5.55;3.55;;;;;;;7.21;97.46;98323.25;5008033;28;20045;-79
2023/12/26 09:55:25;;;;;;;6.95;3.97;;;;;;;7.21;97.33;98331.22;5010919;28;20061;-80
2023/12/26 09:57:51;;;;;;;9.23;4.75;;;;;;;7.17;97.55;98322.94;5016001;28;20053;-79
2023/12/26 10:00:16;;;;;;;9.52;5.25;;;;;;;7.12;97.26;98330.78;5005917;28;20030;-79
2023/12/26 10:02:42;;;;;;;15.05;5.80;;;;;;;6.97;96.61;98325.22;5016801;28;20053;-80
2023/12/26 10:05:08;;;;;;;8.73;5.53;;;;;;;7.09;97.20;98330.47;5010173;28;20105;-80
2023/12/26 10:07:34;;;;;;;19.25;5.90;;;;;;;7.25;97.00;98335.03;5007951;28;20082;-80
2023/12/26 10:09:59;;;;;;;11.82;5.97;;;;;;;7.15;97.38;98325.03;5006598;28;20052;-80
2023/12/26 10:12:32;;;;;;;12.25;6.35;;;;;;;7.20;97.13;98341.03;5004802;28;20092;-80
2023/12/26 10:14:58;;;;;;;16.92;7.20;;;;;;;7.22;97.00;98349.56;5006827;28;20030;-80
2023/12/26 10:17:25;;;;;;;14.60;7.57;;;;;;;7.20;97.39;98341.03;5000802;28;20025;-80
2023/12/26 10:19:50;;;;;;;20.77;7.20;;;;;;;7.33;96.28;98343.41;5005123;28;20497;-80
2023/12/26 10:22:16;;;;;;;17.90;7.20;;;;;;;7.26;96.26;98348.03;5001176;28;20066;-81
2023/12/26 10:24:42;;;;;;;8.20;5.88;;;;;;;7.37;95.85;98347.19;5003589;28;20052;-81
2023/12/26 10:27:07;;;;;;;13.00;5.80;;;;;;;7.31;95.13;98339.38;5004944;28;20390;-80
2023/12/26 10:29:33;;;;;;;10.25;5.78;;;;;;;7.46;94.86;98353.72;5004908;28;20037;-80
2023/12/26 10:32:03;;;;;;;11.60;5.82;;;;;;;7.27;94.87;98336.38;5009517;28;21776;-80
2023/12/26 10:34:29;;;;;;;8.13;4.13;;;;;;;7.39;95.39;98368.97;5011931;28;20026;-80
2023/12/26 10:36:56;;;;;;;8.23;5.43;;;;;;;7.41;93.62;98360.75;5014186;28;20470;-81
2023/12/26 10:39:23;;;;;;;9.55;4.07;;;;;;;7.40;94.06;98356.50;5014271;28;20037;-80
2023/12/26 10:41:49;;;;;;;7.75;5.97;;;;;;;7.37;93.61;98349.03;5020423;28;21177;-81
2023/12/26 10:44:17;;;;;;;7.70;4.25;;;;;;;7.37;95.71;98352.50;5016917;28;20041;-81
2023/12/26 10:46:44;;;;;;;6.93;3.72;;;;;;;7.42;94.70;98383.63;5020146;28;20034;-81
2023/12/26 10:49:11;;;;;;;10.02;5.75;;;;;;;7.37;94.60;98364.94;5020651;28;20552;-81
2023/12/26 10:51:44;;;;;;;13.93;5.53;;;;;;;7.31;93.70;98366.72;5006564;28;20067;-80
2023/12/26 10:54:19;;;;;;;7.07;5.40;;;;;;;7.46;93.26;98372.28;5009027;28;20030;-80
2023/12/26 10:56:47;;;;;;;11.05;6.68;;;;;;;7.47;94.19;98379.19;5013293;28;20032;-80
2023/12/26 13:52:09;;;;;;;4.65;2.35;;;;;;;7.31;75.62;98525.19;5010694;28;20037;-81
2023/12/26 13:54:34;;;;;;;10.35;3.58;;;;;;;7.29;76.79;98533.38;5014602;28;20038;-80
2023/12/26 13:57:00;;;;;;;7.80;3.85;;;;;;;7.36;76.28;98530.59;5007408;28;20030;-81
2023/12/26 13:59:25;;;;;;;11.40;3.78;;;;;;;7.30;76.70;98534.16;5006841;28;20549;-80
2023/12/26 14:01:51;;;;;;;13.13;3.53;;;;;;;7.34;77.73;98535.31;5007212;28;20041;-80
2023/12/26 14:04:16;;;;;;;12.23;3.28;;;;;;;7.11;77.28;98517.63;5011478;28;20104;-80
2023/12/26 14:06:42;;;;;;;13.35;2.83;;;;;;;7.20;77.68;98534.78;5012134;28;20132;-79
2023/12/26 14:09:07;;;;;;;5.88;2.63;;;;;;;7.33;77.20;98534.53;5012403;28;20030;-80
2023/12/26 14:11:32;;;;;;;6.18;3.40;;;;;;;7.24;77.04;98551.84;5014294;28;20037;-80
2023/12/26 14:13:57;;;;;;;10.25;3.40;;;;;;;7.38;79.48;98552.41;5013485;28;20025;-81
2023/12/26 14:16:23;;;;;;;11.98;2.72;;;;;;;7.36;79.20;98560.59;5013837;23;20501;-77
2023/12/26 14:18:48;;;;;;;8.25;2.40;;;;;;;7.09;78.68;98559.50;5010384;28;20033;-77
2023/12/26 14:21:14;;;;;;;9.93;3.60;;;;;;;7.37;80.29;98572.84;4993029;28;20046;-76